Time;durP1;ratioP1;P1;durP2;ratioP2;P2;SDS_P1;SDS_P2;PMS_P1;PMS_P2;Temp;Humidity;BMP_temperature;BMP_pressure;BME280_temperature;BME280_humidity;BME280_pressure;Samples;Min_cycle;Max_cycle;Signal;HPM_P1;HPM_P2
2021/03/21 00:01:42;;;;;;;6.88;2.65;;;2.80;99.90;;;;;;5048091;28;20047;-68
2021/03/21 00:04:26;;;;;;;9.93;3.47;;;2.80;99.90;;;;;;5017841;28;20048;-67
2021/03/21 00:07:10;;;;;;;9.82;3.95;;;2.70;99.90;;;;;;5039235;28;20116;-67
2021/03/21 00:09:54;;;;;;;8.65;3.55;;;2.70;99.90;;;;;;5053877;28;20052;-67
2021/03/21 00:12:38;;;;;;;7.07;2.72;;;2.60;99.90;;;;;;5039602;28;20091;-67
2021/03/21 00:15:23;;;;;;;5.20;2.40;;;2.60;99.90;;;;;;5039384;28;20043;-67
2021/03/21 00:18:07;;;;;;;6.97;2.53;;;2.70;99.90;;;;;;5038767;28;20032;-68
2021/03/21 00:20:52;;;;;;;4.70;2.20;;;2.70;99.90;;;;;;5039372;28;20730;-67
2021/03/21 00:23:37;;;;;;;6.18;2.63;;;2.80;99.90;;;;;;5024950;28;20163;-67
2021/03/21 00:26:41;;;;;;;6.28;2.90;;;2.80;99.90;;;;;;5041314;28;20490;-68
2021/03/21 00:29:45;;;;;;;7.03;2.80;;;2.80;99.90;;;;;;5037272;28;20083;-69
2021/03/21 00:32:51;;;;;;;7.03;2.65;;;2.80;99.90;;;;;;5038154;28;20040;-69
2021/03/21 00:35:38;;;;;;;5.88;2.38;;;2.80;99.90;;;;;;5039043;28;20427;-68
2021/03/21 00:38:32;;;;;;;5.57;2.72;;;2.80;99.90;;;;;;5036286;28;20039;-67
2021/03/21 00:41:18;;;;;;;;;;;2.70;99.90;;;;;;5053558;28;20104;-69
2021/03/21 00:44:02;;;;;;;4.70;1.70;;;2.70;99.90;;;;;;5053374;28;19916;-68
2021/03/21 00:46:47;;;;;;;6.88;1.90;;;2.70;99.90;;;;;;5038355;28;20465;-68
2021/03/21 00:49:31;;;;;;;7.32;2.35;;;2.70;99.90;;;;;;5037607;28;20096;-68
2021/03/21 00:52:16;;;;;;;5.25;2.10;;;2.70;99.90;;;;;;5039752;28;20106;-68
2021/03/21 00:55:00;;;;;;;5.15;2.30;;;2.60;99.90;;;;;;5027308;28;20047;-68
2021/03/21 00:57:45;;;;;;;6.60;2.65;;;2.60;99.90;;;;;;5037948;28;20108;-68
2021/03/21 01:00:36;;;;;;;6.18;2.67;;;2.70;99.90;;;;;;5044091;28;20044;-68
2021/03/21 01:03:21;;;;;;;5.70;2.20;;;2.70;99.90;;;;;;5038330;28;20124;-68
2021/03/21 01:06:08;;;;;;;5.88;2.90;;;2.50;99.90;;;;;;5054973;28;20052;-68
2021/03/21 01:08:54;;;;;;;7.93;3.38;;;2.50;99.90;;;;;;5028322;28;20063;-68
2021/03/21 01:11:39;;;;;;;7.00;2.80;;;2.60;99.90;;;;;;5029817;28;20044;-68
2021/03/21 01:14:24;;;;;;;5.97;3.08;;;2.60;99.90;;;;;;5049669;28;20450;-69
2021/03/21 01:17:08;;;;;;;6.88;2.75;;;2.60;99.90;;;;;;5049352;28;20025;-69
2021/03/21 01:19:52;;;;;;;6.90;2.65;;;2.50;99.90;;;;;;5050592;28;20091;-67
2021/03/21 01:22:37;;;;;;;6.20;2.55;;;2.50;99.90;;;;;;5048844;28;20048;-69
2021/03/21 01:25:22;;;;;;;6.55;1.95;;;2.50;99.90;;;;;;5030173;28;20051;-69
2021/03/21 01:28:22;;;;;;;5.78;2.50;;;2.50;99.90;;;;;;5036936;28;20021;-69
2021/03/21 01:31:12;;;;;;;7.47;2.72;;;2.50;99.90;;;;;;5059818;28;20343;-67
2021/03/21 01:33:57;;;;;;;7.15;2.90;;;2.40;99.90;;;;;;5048227;28;20040;-68
2021/03/21 01:36:41;;;;;;;6.53;2.78;;;2.40;99.90;;;;;;5046985;28;20113;-68
2021/03/21 01:39:26;;;;;;;6.38;2.70;;;2.50;99.90;;;;;;5029029;28;20525;-68
2021/03/21 01:42:14;;;;;;;7.50;3.17;;;2.50;99.90;;;;;;5059995;28;20032;-68
2021/03/21 01:44:59;;;;;;;7.78;2.67;;;2.50;99.90;;;;;;5048369;28;20423;-67
2021/03/21 01:47:43;;;;;;;7.32;3.38;;;2.40;99.90;;;;;;5030281;28;20087;-68
2021/03/21 01:50:40;;;;;;;6.13;3.03;;;2.40;99.90;;;;;;5054112;28;20135;-68
2021/03/21 01:53:30;;;;;;;8.38;3.25;;;2.40;99.90;;;;;;5048017;28;20676;-68
2021/03/21 01:56:14;;;;;;;7.10;3.10;;;2.30;99.90;;;;;;5062468;28;20029;-67
2021/03/21 01:59:24;;;;;;;6.80;3.08;;;2.40;99.90;;;;;;5028612;28;20112;-68
2021/03/21 02:02:10;;;;;;;7.10;3.35;;;2.40;99.90;;;;;;5046835;28;20033;-68
2021/03/21 02:04:55;;;;;;;7.15;3.00;;;2.40;99.90;;;;;;5028768;28;20079;-68
2021/03/21 02:07:53;;;;;;;6.78;3.20;;;2.50;99.90;;;;;;5037633;28;20033;-68
2021/03/21 02:11:22;;;;;;;8.40;3.40;;;2.50;99.90;;;;;;5061941;28;20082;-68
2021/03/21 02:14:28;;;;;;;6.97;3.50;;;2.40;99.90;;;;;;5032123;28;20095;-69
2021/03/21 02:17:20;;;;;;;8.88;3.50;;;2.40;99.90;;;;;;5052150;28;20171;-68
2021/03/21 02:20:42;;;;;;;8.38;3.22;;;2.40;99.90;;;;;;5050809;28;20075;-67
2021/03/21 02:23:47;;;;;;;8.07;3.47;;;2.40;99.90;;;;;;4970324;28;20122;-69
2021/03/21 02:27:00;;;;;;;8.43;3.20;;;2.40;99.90;;;;;;5030810;28;20035;-68
2021/03/21 02:30:30;;;;;;;9.70;3.47;;;2.40;99.90;;;;;;5050921;28;20051;-68
2021/03/21 02:33:28;;;;;;;8.73;4.18;;;2.50;99.90;;;;;;5035487;28;20375;-68
2021/03/21 02:36:40;;;;;;;12.35;4.18;;;2.50;99.90;;;;;;5066939;28;20092;-68
2021/03/21 02:39:27;;;;;;;8.05;3.63;;;2.30;99.90;;;;;;5050859;28;20111;-68
2021/03/21 02:42:22;;;;;;;8.98;4.03;;;2.30;99.90;;;;;;5063782;28;20028;-68
2021/03/21 02:45:12;;;;;;;8.68;3.90;;;2.30;99.90;;;;;;5051380;28;20112;-68
2021/03/21 02:48:03;;;;;;;7.18;2.75;;;2.30;99.90;;;;;;5019773;28;20406;-68
2021/03/21 02:50:54;;;;;;;7.18;3.03;;;2.40;99.90;;;;;;5036019;28;20086;-67
2021/03/21 02:53:52;;;;;;;7.13;3.10;;;2.40;99.90;;;;;;5051179;28;20024;-68
2021/03/21 02:56:41;;;;;;;8.63;3.38;;;2.40;99.90;;;;;;5051382;28;20039;-68
2021/03/21 02:59:32;;;;;;;8.40;3.60;;;2.40;99.90;;;;;;5050750;28;20086;-69
2021/03/21 03:02:37;;;;;;;6.63;2.80;;;2.30;99.90;;;;;;5051786;28;20120;-68
2021/03/21 03:05:29;;;;;;;5.28;2.53;;;2.40;99.90;;;;;;5033387;28;20481;-68
2021/03/21 03:08:43;;;;;;;5.73;2.53;;;2.30;99.90;;;;;;5051763;28;20123;-68
2021/03/21 03:11:45;;;;;;;6.13;3.00;;;2.30;99.90;;;;;;5041126;28;20174;-68
2021/03/21 03:14:35;;;;;;;8.90;3.30;;;2.40;99.90;;;;;;5044195;28;20064;-68
2021/03/21 03:17:52;;;;;;;7.35;2.72;;;2.30;99.90;;;;;;5060693;28;20424;-68
2021/03/21 03:20:46;;;;;;;6.38;2.65;;;2.30;99.90;;;;;;4994708;28;20075;-68
2021/03/21 03:23:46;;;;;;;7.30;3.15;;;2.30;99.90;;;;;;5050838;28;20035;-68
2021/03/21 03:26:55;;;;;;;6.90;3.03;;;2.30;99.90;;;;;;5049664;28;20068;-68
2021/03/21 03:29:41;;;;;;;6.05;2.67;;;2.30;99.90;;;;;;5048272;28;20374;-68
2021/03/21 03:32:27;;;;;;;7.07;3.03;;;2.30;99.90;;;;;;5051309;28;20056;-67
2021/03/21 03:35:15;;;;;;;10.93;3.10;;;2.20;99.90;;;;;;5047453;28;20061;-68
2021/03/21 03:38:02;;;;;;;8.05;3.20;;;2.30;99.90;;;;;;5065485;28;20695;-68
2021/03/21 03:40:47;;;;;;;7.45;2.90;;;2.40;99.90;;;;;;5032510;28;20036;-68
2021/03/21 03:43:49;;;;;;;9.00;3.63;;;2.20;99.90;;;;;;5040274;28;20049;-68
2021/03/21 03:47:07;;;;;;;7.80;3.45;;;2.20;99.90;;;;;;5053112;28;20136;-68
2021/03/21 03:50:11;;;;;;;7.55;2.97;;;2.30;99.90;;;;;;5062725;28;20107;-67
2021/03/21 03:53:33;;;;;;;6.22;3.00;;;2.30;99.90;;;;;;5050985;28;20093;-67
2021/03/21 03:56:43;;;;;;;7.43;3.17;;;2.30;99.90;;;;;;5067125;28;20162;-68
2021/03/21 03:59:33;;;;;;;5.88;2.45;;;2.40;99.90;;;;;;5066461;28;20031;-68
2021/03/21 04:02:24;;;;;;;6.45;3.00;;;2.20;99.90;;;;;;5086044;28;20116;-67
2021/03/21 04:05:36;;;;;;;10.40;3.20;;;2.20;99.90;;;;;;5076088;28;20036;-68
2021/03/21 04:08:46;;;;;;;8.52;3.83;;;2.10;99.90;;;;;;5068093;28;20081;-68
2021/03/21 04:11:33;;;;;;;8.90;3.15;;;2.20;99.90;;;;;;5050904;28;20048;-68
2021/03/21 04:14:46;;;;;;;8.05;3.30;;;2.30;99.90;;;;;;5087971;28;20163;-68
2021/03/21 04:17:43;;;;;;;8.00;3.30;;;2.30;99.90;;;;;;5070377;28;20300;-68
2021/03/21 04:20:36;;;;;;;9.63;3.20;;;2.30;99.90;;;;;;5068778;28;20089;-67
2021/03/21 04:23:45;;;;;;;8.35;3.13;;;2.20;99.90;;;;;;5069679;28;20153;-68
2021/03/21 04:26:57;;;;;;;8.18;3.28;;;2.30;99.90;;;;;;5050550;28;20123;-68
2021/03/21 04:30:04;;;;;;;7.18;3.17;;;2.30;99.90;;;;;;5068687;28;20134;-68
2021/03/21 04:32:51;;;;;;;7.03;3.28;;;2.20;99.90;;;;;;5089987;28;20123;-68
2021/03/21 04:35:41;;;;;;;7.22;3.28;;;2.20;99.90;;;;;;5067783;28;20051;-67
2021/03/21 04:38:51;;;;;;;6.35;2.72;;;2.10;99.90;;;;;;5050879;28;20197;-68
2021/03/21 04:41:49;;;;;;;6.10;2.80;;;2.20;99.90;;;;;;5079129;28;20030;-68
2021/03/21 04:44:35;;;;;;;7.30;3.08;;;2.20;99.90;;;;;;5065064;28;20029;-68
2021/03/21 04:47:40;;;;;;;7.13;3.40;;;2.20;99.90;;;;;;5064520;28;20094;-68
2021/03/21 04:50:24;;;;;;;6.50;3.08;;;2.20;99.90;;;;;;5068698;28;20043;-67
2021/03/21 04:53:47;;;;;;;8.20;3.42;;;2.20;99.90;;;;;;5067529;28;20051;-68
2021/03/21 04:56:36;;;;;;;8.23;3.45;;;2.30;99.90;;;;;;5065866;28;20035;-67
2021/03/21 04:59:33;;;;;;;9.75;3.97;;;2.30;99.90;;;;;;5067857;28;20058;-67
2021/03/21 05:02:27;;;;;;;8.00;3.35;;;2.30;99.90;;;;;;5060102;28;20028;-68
2021/03/21 05:05:23;;;;;;;9.18;3.90;;;2.30;99.90;;;;;;5072358;28;20063;-68
2021/03/21 05:08:23;;;;;;;8.65;3.63;;;2.20;99.90;;;;;;5067993;28;20028;-68
2021/03/21 05:11:08;;;;;;;8.07;3.60;;;2.30;99.90;;;;;;5048178;28;20028;-68
2021/03/21 05:14:01;;;;;;;8.48;3.60;;;2.40;99.90;;;;;;5082029;28;20036;-68
2021/03/21 05:17:27;;;;;;;7.55;3.45;;;2.40;99.90;;;;;;5082095;28;20535;-68
2021/03/21 05:20:41;;;;;;;7.63;3.38;;;2.40;99.90;;;;;;4974170;28;20049;-67
2021/03/21 05:23:47;;;;;;;8.47;3.70;;;2.40;99.90;;;;;;5065393;28;20036;-68
2021/03/21 05:27:02;;;;;;;12.43;3.47;;;2.30;99.90;;;;;;5066192;28;20036;-67
2021/03/21 05:30:26;;;;;;;7.18;3.30;;;2.40;99.90;;;;;;5049702;28;20119;-68
2021/03/21 05:33:10;;;;;;;12.60;5.57;;;2.40;99.90;;;;;;5067316;28;20097;-68
2021/03/21 05:35:58;;;;;;;8.68;4.53;;;2.30;99.90;;;;;;5059419;28;20043;-68
2021/03/21 05:38:52;;;;;;;14.75;5.30;;;2.40;99.90;;;;;;5067052;28;20025;-67
2021/03/21 05:42:13;;;;;;;11.15;4.10;;;2.30;99.90;;;;;;5067186;28;20023;-67
2021/03/21 05:45:17;;;;;;;9.07;4.18;;;2.40;99.90;;;;;;5063217;28;20047;-68
2021/03/21 05:48:27;;;;;;;12.77;4.68;;;2.30;99.90;;;;;;5069320;28;20052;-68
2021/03/21 05:51:39;;;;;;;9.18;4.10;;;2.40;99.90;;;;;;5068400;28;20032;-67
2021/03/21 05:55:12;;;;;;;8.13;4.10;;;2.40;99.90;;;;;;5064420;28;20039;-68
2021/03/21 05:58:21;;;;;;;9.57;4.40;;;2.40;99.90;;;;;;5031626;28;20044;-68
2021/03/21 06:01:43;;;;;;;7.78;3.78;;;2.40;99.90;;;;;;5049761;28;20043;-67
2021/03/21 06:04:36;;;;;;;11.50;5.22;;;2.50;99.90;;;;;;5067535;28;20055;-68
2021/03/21 06:07:54;;;;;;;9.63;5.15;;;2.40;99.90;;;;;;5066906;28;20028;-68
2021/03/21 06:11:02;;;;;;;12.50;6.10;;;2.50;99.90;;;;;;5063825;28;20062;-68
2021/03/21 06:14:19;;;;;;;17.20;10.23;;;2.50;99.90;;;;;;5062674;28;20036;-67
2021/03/21 06:17:24;;;;;;;13.68;9.23;;;2.60;99.90;;;;;;5058397;28;20039;-68
2021/03/21 06:20:12;;;;;;;13.27;7.72;;;2.80;99.90;;;;;;5049347;28;20508;-67
2021/03/21 06:22:59;;;;;;;11.18;6.57;;;2.90;99.90;;;;;;5079583;28;20028;-67
2021/03/21 06:25:53;;;;;;;15.75;7.22;;;2.90;99.90;;;;;;5066970;28;20148;-68
2021/03/21 06:28:56;;;;;;;11.45;6.88;;;2.90;99.90;;;;;;5067496;28;20051;-68
2021/03/21 06:31:53;;;;;;;10.02;5.90;;;3.00;99.90;;;;;;5083126;28;20072;-67
2021/03/21 06:34:52;;;;;;;10.35;5.72;;;3.10;99.90;;;;;;5067175;28;20455;-68
2021/03/21 06:37:48;;;;;;;10.73;5.93;;;3.20;99.90;;;;;;5084305;28;20346;-68
2021/03/21 06:41:04;;;;;;;10.75;5.03;;;3.30;99.90;;;;;;5068206;28;20101;-67
2021/03/21 06:44:24;;;;;;;11.27;6.03;;;3.10;99.90;;;;;;5068542;28;20029;-68
2021/03/21 06:47:24;;;;;;;11.93;6.13;;;3.00;99.90;;;;;;5054329;28;20028;-68
2021/03/21 06:50:24;;;;;;;12.23;5.70;;;3.10;99.90;;;;;;5068687;28;20028;-67
2021/03/21 06:53:30;;;;;;;10.85;5.45;;;3.30;99.90;;;;;;5078066;28;20123;-68
2021/03/21 06:56:30;;;;;;;13.25;5.53;;;3.40;99.90;;;;;;5079181;28;20067;-68
2021/03/21 06:59:14;;;;;;;11.00;6.00;;;3.60;99.90;;;;;;5079625;28;20502;-67
2021/03/21 07:02:29;;;;;;;11.75;6.63;;;3.80;99.90;;;;;;5067676;28;20078;-68
2021/03/21 07:05:43;;;;;;;12.38;7.25;;;3.80;99.90;;;;;;5071390;28;20086;-68
2021/03/21 07:08:45;;;;;;;84.03;32.00;;;3.70;99.90;;;;;;5071344;28;20350;-68
2021/03/21 07:11:44;;;;;;;41.67;16.73;;;3.70;99.90;;;;;;5069259;28;20039;-67
2021/03/21 07:14:34;;;;;;;132.95;38.30;;;3.70;99.90;;;;;;5081810;28;20066;-68
2021/03/21 07:17:24;;;;;;;66.90;21.15;;;3.80;99.90;;;;;;5070933;28;20023;-68
2021/03/21 07:20:25;;;;;;;18.80;9.00;;;3.80;99.90;;;;;;5086928;28;20550;-67
2021/03/21 07:23:34;;;;;;;39.42;14.40;;;3.80;99.90;;;;;;5068334;28;20055;-68
2021/03/21 07:26:48;;;;;;;80.75;26.92;;;4.00;99.90;;;;;;5070973;28;20462;-67
2021/03/21 07:29:50;;;;;;;17.48;8.30;;;4.10;99.90;;;;;;5070985;28;20104;-68
2021/03/21 07:32:53;;;;;;;12.85;6.78;;;4.10;99.90;;;;;;5070725;28;20105;-68
2021/03/21 07:35:45;;;;;;;13.20;7.20;;;4.00;99.90;;;;;;5084089;28;20059;-70
2021/03/21 07:39:07;;;;;;;10.75;6.65;;;4.00;99.90;;;;;;5068145;28;20062;-68
2021/03/21 07:42:22;;;;;;;13.20;6.32;;;4.30;99.90;;;;;;5091520;28;20035;-68
2021/03/21 07:45:16;;;;;;;10.27;6.50;;;4.30;99.90;;;;;;5048796;28;20386;-68
2021/03/21 07:48:09;;;;;;;;;;;4.30;99.90;;;;;;5040540;28;20035;-68
2021/03/21 07:50:59;;;;;;;11.82;6.35;;;4.20;99.90;;;;;;5055164;28;19990;-67
2021/03/21 07:54:28;;;;;;;10.73;6.85;;;4.00;99.90;;;;;;5069539;28;20029;-68
2021/03/21 07:57:18;;;;;;;12.35;6.38;;;4.10;99.90;;;;;;5057849;28;20051;-68
2021/03/21 08:00:06;;;;;;;15.35;6.70;;;4.10;99.90;;;;;;5066378;28;20040;-67
2021/03/21 08:03:12;;;;;;;9.98;6.07;;;4.20;99.90;;;;;;5067869;28;20469;-68
2021/03/21 08:05:59;;;;;;;10.00;6.05;;;4.30;99.90;;;;;;5060116;28;20067;-67
2021/03/21 08:08:51;;;;;;;12.98;6.82;;;4.30;99.90;;;;;;5068769;28;20503;-68
2021/03/21 08:11:37;;;;;;;17.55;6.25;;;4.30;99.90;;;;;;5070556;28;20055;-69
2021/03/21 08:14:27;;;;;;;11.27;6.03;;;4.30;99.90;;;;;;5065147;28;20039;-68
2021/03/21 08:17:25;;;;;;;10.90;6.05;;;4.20;99.90;;;;;;5075977;28;20098;-68
2021/03/21 08:20:46;;;;;;;11.05;6.05;;;4.20;99.90;;;;;;5069900;28;20103;-67
2021/03/21 08:23:33;;;;;;;10.98;5.88;;;4.40;99.90;;;;;;5054747;28;20036;-69
2021/03/21 08:26:31;;;;;;;10.23;6.15;;;4.40;99.90;;;;;;5069511;28;20604;-68
2021/03/21 08:29:26;;;;;;;18.60;8.25;;;4.40;99.90;;;;;;5065842;28;20036;-69
2021/03/21 08:32:12;;;;;;;16.25;7.25;;;4.50;99.90;;;;;;5082404;28;20078;-68
2021/03/21 08:35:32;;;;;;;10.63;6.18;;;4.50;99.90;;;;;;5077842;28;20090;-68
2021/03/21 08:38:20;;;;;;;8.93;5.50;;;4.50;99.90;;;;;;5068244;28;20076;-68
2021/03/21 08:41:05;;;;;;;9.30;5.53;;;4.70;99.90;;;;;;5079653;28;20161;-68
2021/03/21 08:44:21;;;;;;;11.02;6.22;;;4.60;99.90;;;;;;5085766;28;21548;-68
2021/03/21 08:47:15;;;;;;;10.00;5.70;;;4.70;99.90;;;;;;5057537;28;20146;-68
2021/03/21 08:50:03;;;;;;;9.95;6.05;;;4.90;99.90;;;;;;5069529;28;20406;-68
2021/03/21 08:52:47;;;;;;;11.38;5.82;;;5.10;99.90;;;;;;5062491;28;20055;-68
2021/03/21 08:55:35;;;;;;;11.80;6.50;;;5.20;99.90;;;;;;5066407;28;20043;-68
2021/03/21 08:58:22;;;;;;;12.00;6.75;;;5.20;99.90;;;;;;5067583;28;20497;-69
2021/03/21 09:01:12;;;;;;;11.15;6.15;;;5.20;99.90;;;;;;5057074;28;20048;-69
2021/03/21 09:04:17;;;;;;;15.88;7.05;;;5.30;99.90;;;;;;5068884;28;20078;-68
2021/03/21 09:07:16;;;;;;;11.52;6.43;;;5.50;99.90;;;;;;5068394;28;20024;-68
2021/03/21 09:10:09;;;;;;;11.25;7.35;;;5.50;99.90;;;;;;5066692;28;20113;-67
2021/03/21 09:13:12;;;;;;;10.00;6.35;;;5.60;99.90;;;;;;5069701;28;20483;-68
2021/03/21 09:16:15;;;;;;;10.88;7.00;;;5.50;99.90;;;;;;5068402;28;20024;-68
2021/03/21 09:19:22;;;;;;;11.80;6.80;;;5.70;99.90;;;;;;5061647;28;20044;-68
2021/03/21 09:22:38;;;;;;;12.05;7.03;;;5.90;99.90;;;;;;5064093;28;20031;-68
2021/03/21 09:25:32;;;;;;;11.20;6.97;;;5.70;99.90;;;;;;5061576;28;20186;-68
2021/03/21 09:28:16;;;;;;;10.70;7.18;;;5.70;99.90;;;;;;5068355;28;20094;-68
2021/03/21 09:31:05;;;;;;;12.35;7.75;;;5.80;99.90;;;;;;5051339;28;20062;-68
2021/03/21 09:34:05;;;;;;;11.27;7.53;;;5.90;99.90;;;;;;5042631;28;20374;-68
2021/03/21 09:36:58;;;;;;;11.38;7.07;;;6.30;99.90;;;;;;5058492;28;20040;-69
2021/03/21 09:39:58;;;;;;;;;;;6.40;99.90;;;;;;5066856;28;20096;-68
2021/03/21 09:42:42;;;;;;;11.82;7.53;;;6.50;99.90;;;;;;5069110;28;20003;-68
2021/03/21 09:45:31;;;;;;;10.10;6.93;;;6.60;99.90;;;;;;5054519;28;20484;-68
2021/03/21 09:48:32;;;;;;;11.13;7.07;;;6.90;99.90;;;;;;5065766;28;20048;-68
2021/03/21 09:51:32;;;;;;;10.57;7.35;;;7.20;99.90;;;;;;5082865;28;20168;-68
2021/03/21 09:54:53;;;;;;;10.70;7.22;;;7.60;99.90;;;;;;5080388;28;20082;-68
2021/03/21 09:57:58;;;;;;;10.63;7.13;;;7.80;99.90;;;;;;5069194;28;20075;-69
2021/03/21 10:00:50;;;;;;;11.15;7.80;;;8.00;99.90;;;;;;5049201;28;20447;-69
2021/03/21 10:03:36;;;;;;;9.85;7.15;;;7.80;99.90;;;;;;5050244;28;20036;-69
2021/03/21 10:06:25;;;;;;;11.15;7.70;;;7.60;99.90;;;;;;5068949;28;20060;-69
2021/03/21 10:09:13;;;;;;;12.48;7.65;;;7.60;99.90;;;;;;5068179;28;20488;-69
2021/03/21 10:12:05;;;;;;;10.18;7.93;;;7.60;99.90;;;;;;5068851;28;20055;-69
2021/03/21 10:14:59;;;;;;;9.68;6.78;;;8.00;99.90;;;;;;5066440;28;20037;-68
2021/03/21 10:17:47;;;;;;;10.98;6.25;;;8.10;99.90;;;;;;5067958;28;20036;-69
2021/03/21 10:20:52;;;;;;;12.13;7.03;;;8.20;99.90;;;;;;5062938;28;20043;-70
2021/03/21 10:23:49;;;;;;;10.75;7.20;;;8.50;99.90;;;;;;5064144;28;20028;-69
2021/03/21 10:26:34;;;;;;;9.30;6.65;;;8.80;99.90;;;;;;5067894;28;20147;-68
2021/03/21 10:29:21;;;;;;;8.00;5.85;;;9.20;99.90;;;;;;5068245;28;20365;-68
2021/03/21 10:32:20;;;;;;;8.48;6.65;;;9.60;99.90;;;;;;5066056;28;20063;-68
2021/03/21 10:35:14;;;;;;;8.40;6.00;;;10.10;99.90;;;;;;5071952;28;20094;-68
2021/03/21 10:38:04;;;;;;;6.90;5.38;;;10.00;99.90;;;;;;5046784;28;20055;-69
2021/03/21 10:40:49;;;;;;;9.25;5.53;;;9.60;99.90;;;;;;5071262;28;20017;-69
2021/03/21 10:43:34;;;;;;;7.80;5.47;;;9.10;99.90;;;;;;5070280;28;20036;-69
2021/03/21 10:46:56;;;;;;;6.95;4.78;;;8.80;99.90;;;;;;5069769;28;20553;-69
2021/03/21 10:49:51;;;;;;;7.25;5.13;;;8.30;99.90;;;;;;5086086;28;20044;-69
2021/03/21 10:52:37;;;;;;;9.15;5.85;;;7.90;99.90;;;;;;5070439;28;20043;-69
2021/03/21 10:55:28;;;;;;;7.35;4.88;;;7.80;99.90;;;;;;5068314;28;20048;-69
2021/03/21 10:58:29;;;;;;;8.32;5.53;;;7.60;99.90;;;;;;5066887;28;20074;-68
2021/03/21 11:01:17;;;;;;;7.70;5.32;;;7.70;99.90;;;;;;5083541;28;20135;-68
2021/03/21 11:04:24;;;;;;;6.82;4.22;;;7.90;99.90;;;;;;5071488;28;20036;-69
2021/03/21 11:07:20;;;;;;;7.70;5.03;;;8.00;99.90;;;;;;5071301;28;20477;-68
2021/03/21 11:10:07;;;;;;;6.45;4.32;;;8.10;99.90;;;;;;5060394;28;20098;-67
2021/03/21 11:12:53;;;;;;;8.70;5.43;;;7.90;99.90;;;;;;5087109;28;20035;-68
2021/03/21 11:15:40;;;;;;;6.30;4.38;;;7.70;99.90;;;;;;5070379;28;20051;-69
2021/03/21 11:18:31;;;;;;;6.10;3.92;;;7.50;99.90;;;;;;5052565;28;20460;-68
2021/03/21 11:21:15;;;;;;;6.45;3.95;;;7.30;99.90;;;;;;5068440;28;20021;-69
2021/03/21 11:24:17;;;;;;;6.03;3.63;;;7.30;99.90;;;;;;5037559;28;20402;-68
2021/03/21 11:27:10;;;;;;;5.40;3.20;;;7.40;99.90;;;;;;5053010;28;20059;-69
2021/03/21 11:30:13;;;;;;;6.70;3.90;;;7.40;99.90;;;;;;5069139;28;20383;-68
2021/03/21 11:33:37;;;;;;;7.20;4.07;;;7.20;99.90;;;;;;5068090;28;20058;-69
2021/03/21 11:36:31;;;;;;;9.45;4.95;;;7.00;99.90;;;;;;5053332;28;20071;-68
2021/03/21 11:39:55;;;;;;;6.53;4.53;;;7.20;99.90;;;;;;5069171;28;20589;-68
2021/03/21 11:42:46;;;;;;;6.25;3.97;;;7.10;99.90;;;;;;5084642;28;20353;-69
2021/03/21 11:45:36;;;;;;;7.45;4.60;;;7.10;99.90;;;;;;5069171;28;20047;-68
2021/03/21 11:48:35;;;;;;;7.53;4.40;;;7.20;99.90;;;;;;5068832;28;20439;-68
2021/03/21 11:51:19;;;;;;;7.90;4.35;;;7.50;99.90;;;;;;5066078;28;20094;-68
2021/03/21 11:54:05;;;;;;;6.30;3.75;;;7.40;99.90;;;;;;5070767;28;20101;-68
2021/03/21 11:57:03;;;;;;;7.00;4.20;;;7.50;99.90;;;;;;5083998;28;20035;-68
2021/03/21 11:59:49;;;;;;;7.60;4.47;;;7.40;99.90;;;;;;5052538;28;20028;-68
2021/03/21 12:02:46;;;;;;;7.32;4.40;;;7.30;99.90;;;;;;5051245;28;20131;-68
2021/03/21 12:05:37;;;;;;;10.05;4.75;;;7.10;99.90;;;;;;5067821;28;20099;-68
2021/03/21 12:08:30;;;;;;;7.85;4.63;;;7.10;99.90;;;;;;5052083;28;20033;-68
2021/03/21 12:11:37;;;;;;;8.03;4.43;;;7.10;99.90;;;;;;5070816;28;20485;-68
2021/03/21 12:14:31;;;;;;;8.13;4.65;;;7.20;99.90;;;;;;5051689;28;20036;-68
2021/03/21 12:17:39;;;;;;;6.22;3.83;;;7.40;99.90;;;;;;5069470;28;20044;-68
2021/03/21 12:20:48;;;;;;;7.13;4.30;;;7.80;99.90;;;;;;5081928;28;20101;-68
2021/03/21 12:23:32;;;;;;;8.13;4.00;;;7.90;99.90;;;;;;5052157;28;20500;-68
2021/03/21 12:26:26;;;;;;;8.63;4.63;;;8.30;99.90;;;;;;5086165;28;20047;-69
2021/03/21 12:29:31;;;;;;;7.90;4.18;;;8.50;99.90;;;;;;5086407;28;20516;-69
2021/03/21 12:32:25;;;;;;;5.18;3.65;;;9.00;99.90;;;;;;5051486;28;20055;-67
2021/03/21 12:35:26;;;;;;;5.88;3.28;;;8.80;99.90;;;;;;5078869;28;20580;-68
2021/03/21 12:38:25;;;;;;;6.20;3.97;;;8.70;99.90;;;;;;5066567;28;20035;-68
2021/03/21 12:41:31;;;;;;;6.43;3.90;;;8.60;99.90;;;;;;5069792;28;20039;-68
2021/03/21 12:44:18;;;;;;;15.52;8.60;;;8.80;99.90;;;;;;5086288;28;20394;-68
2021/03/21 12:47:33;;;;;;;6.80;3.80;;;9.10;99.90;;;;;;5070206;28;20036;-68
2021/03/21 12:50:28;;;;;;;8.55;4.32;;;9.00;99.90;;;;;;5083888;28;20059;-67
2021/03/21 12:53:26;;;;;;;8.73;3.60;;;8.80;99.90;;;;;;5070614;28;20067;-68
2021/03/21 12:56:10;;;;;;;5.75;3.30;;;8.70;99.90;;;;;;5069578;28;20078;-68
2021/03/21 12:58:55;;;;;;;6.97;3.63;;;8.70;99.90;;;;;;5085622;28;20508;-68
2021/03/21 13:01:47;;;;;;;9.25;3.30;;;8.40;99.90;;;;;;5085503;28;20401;-68
2021/03/21 13:04:52;;;;;;;6.78;4.03;;;8.30;99.90;;;;;;5067781;28;20033;-68
2021/03/21 13:07:58;;;;;;;7.45;3.20;;;8.30;99.90;;;;;;5063669;28;20028;-68
2021/03/21 13:11:06;;;;;;;7.03;3.05;;;8.20;99.90;;;;;;5068438;28;20413;-69
2021/03/21 13:14:11;;;;;;;6.53;3.33;;;8.00;99.90;;;;;;5068465;28;20577;-67
2021/03/21 13:17:16;;;;;;;6.60;3.22;;;8.20;99.90;;;;;;5067670;28;20055;-67
2021/03/21 13:20:21;;;;;;;8.57;3.58;;;8.40;99.90;;;;;;5067651;28;20033;-68
2021/03/21 13:23:18;;;;;;;5.65;2.95;;;8.80;99.90;;;;;;5059490;28;20036;-68
2021/03/21 13:26:02;;;;;;;7.50;3.40;;;8.90;99.90;;;;;;5088759;28;20059;-68
2021/03/21 13:28:47;;;;;;;6.18;3.55;;;9.50;99.90;;;;;;5088358;28;20035;-68
2021/03/21 13:31:31;;;;;;;5.78;3.40;;;10.40;99.90;;;;;;5084909;28;20041;-67
2021/03/21 13:34:16;;;;;;;4.85;3.08;;;11.80;99.90;;;;;;5069314;28;20227;-68
2021/03/21 13:37:02;;;;;;;7.07;3.63;;;11.80;99.90;;;;;;5084416;28;20036;-69
2021/03/21 13:39:48;;;;;;;5.00;3.20;;;11.10;99.90;;;;;;5076061;28;20032;-68
2021/03/21 13:42:53;;;;;;;7.28;3.50;;;10.20;99.90;;;;;;5061805;28;20036;-68
2021/03/21 13:46:00;;;;;;;4.63;2.50;;;9.90;99.90;;;;;;5068680;28;20541;-67
2021/03/21 13:49:04;;;;;;;6.00;3.20;;;9.80;99.90;;;;;;5041891;28;20033;-67
2021/03/21 13:52:10;;;;;;;5.63;2.45;;;9.80;99.90;;;;;;5069037;28;20381;-67
2021/03/21 13:55:30;;;;;;;4.45;2.42;;;10.40;99.90;;;;;;5068109;28;20496;-67
2021/03/21 13:58:35;;;;;;;4.32;2.05;;;10.50;99.90;;;;;;5056656;28;20025;-67
2021/03/21 14:01:19;;;;;;;4.63;2.35;;;10.70;99.90;;;;;;5068715;28;20034;-67
2021/03/21 14:04:04;;;;;;;3.80;2.25;;;10.30;99.90;;;;;;5066521;28;20029;-68
2021/03/21 14:06:49;;;;;;;4.22;2.17;;;10.40;99.90;;;;;;5078573;28;20328;-68
2021/03/21 14:09:33;;;;;;;7.90;3.63;;;9.70;99.90;;;;;;5073275;28;20036;-68
2021/03/21 14:12:18;;;;;;;8.77;3.45;;;10.30;99.90;;;;;;5073489;28;20501;-68
2021/03/21 14:15:05;;;;;;;3.33;1.83;;;11.10;99.90;;;;;;5054100;28;20029;-68
2021/03/21 14:17:55;;;;;;;3.85;1.85;;;12.30;99.90;;;;;;5073432;28;20035;-67
2021/03/21 14:20:42;;;;;;;4.20;1.88;;;13.20;99.90;;;;;;5088521;28;20186;-67
2021/03/21 14:23:28;;;;;;;3.45;2.00;;;11.80;99.90;;;;;;5088459;28;20040;-67
2021/03/21 14:26:33;;;;;;;3.47;1.50;;;11.10;99.90;;;;;;5052375;28;20063;-68
2021/03/21 14:29:38;;;;;;;3.92;1.65;;;10.70;99.90;;;;;;5053070;28;20048;-67
2021/03/21 14:32:42;;;;;;;2.33;1.30;;;10.20;99.90;;;;;;5071593;28;20107;-67
2021/03/21 14:35:30;;;;;;;3.97;1.30;;;10.40;99.90;;;;;;5072578;28;20509;-67
2021/03/21 14:38:18;;;;;;;4.53;1.30;;;10.50;99.90;;;;;;5087854;28;20063;-67
2021/03/21 14:41:03;;;;;;;3.55;1.50;;;10.80;99.90;;;;;;5047168;28;20027;-67
2021/03/21 14:43:48;;;;;;;3.30;1.20;;;10.50;99.90;;;;;;5071361;28;20090;-67
2021/03/21 14:46:32;;;;;;;3.25;1.48;;;11.10;99.90;;;;;;5085657;28;20039;-67
2021/03/21 14:49:17;;;;;;;2.78;1.17;;;11.20;99.90;;;;;;5088236;28;20118;-67
2021/03/21 14:52:01;;;;;;;4.70;1.27;;;11.10;99.90;;;;;;5071953;28;20097;-68
2021/03/21 14:54:46;;;;;;;4.15;1.45;;;11.10;99.90;;;;;;5072424;28;20055;-68
2021/03/21 14:57:50;;;;;;;3.25;1.33;;;11.10;99.90;;;;;;5055727;28;20021;-68
2021/03/21 15:00:40;;;;;;;5.43;1.52;;;11.70;99.90;;;;;;5075401;28;20043;-69
2021/03/21 15:03:25;;;;;;;3.20;1.20;;;11.20;99.90;;;;;;5066064;28;20161;-68
2021/03/21 15:06:09;;;;;;;4.72;1.08;;;11.30;99.90;;;;;;5087126;28;20036;-68
2021/03/21 15:08:54;;;;;;;4.35;1.23;;;11.00;99.90;;;;;;5087200;28;20033;-68
2021/03/21 15:11:38;;;;;;;6.00;1.70;;;10.60;99.90;;;;;;5072063;28;20058;-68
2021/03/21 15:14:23;;;;;;;4.07;1.45;;;10.80;99.90;;;;;;5058134;28;20511;-68
2021/03/21 15:17:07;;;;;;;3.80;1.23;;;10.70;99.90;;;;;;5071224;28;20047;-67
2021/03/21 15:19:51;;;;;;;5.28;1.27;;;10.00;99.90;;;;;;5061392;28;20033;-68
2021/03/21 15:22:36;;;;;;;4.63;1.13;;;10.00;99.90;;;;;;5078253;28;20566;-68
2021/03/21 15:25:22;;;;;;;3.95;1.35;;;10.50;99.90;;;;;;5080784;28;20036;-68